Terminal Aerodrome Forecast
Issued by NWS

Home | Current Version | Previous Version | Text Only | Print | Product List | Glossary On
Versions: 1 2 3 4 5 6 7 8 9 10 11 12 13 14 15 16 17 18 19 20
000
FTUS43 KBIS 152327
TAFDIK
TAF
KDIK 152327Z 1600/1624 27010KT P6SM BKN120
     FM160800 30010KT P6SM OVC020
     FM161900 31010KT P6SM BKN080=

USA.gov is the U.S. government's official web portal to all federal, state and local government web resources and services.